PWSweather.com
Personal Weather Stations
Station Observations
CAKERNWELDON
Longview , Weldon, CA 93283

Longview Weldon, CA 93283

Lat: 35.6453095, Lon: -118.35927520000001

Elevation: 2671

Station Type: Ambient Weather 2902a

Latest ConditionsUpdated 3:31:00 AM PST Sunday, Dec 15, 2019
Currently Today's Max Today's Min Today's Average
Temperature 42.8°F6.0°C 44.8°F7.1°C 42.4°F5.8°C 43.9°F6.6°C
Dew Point 33.0°F0.6°C 33.5°F0.8°C 29.0°F-1.7°C 31.0°F-0.6°C
Winds 6.0 mph W9.7 kmh W 11.6 mph -18.7 kmh - - 4.0 mph 6.4 kmh
Wind Gusts 9.2 mph14.8 kmh 15.9 mph25.6 kmh - -
Humidity 68% 70% 55% 60%
Pressure 29.92 in1013.2 mb 29.93 in1013.5 mb 29.88 in1011.9 mb -
Hour Temp Dew Point Humidity Winds Wind Gusts Pressure Precip Precip Rate Daily Precip Total
03:31 AM 42.8°F6.0°C 33.0°F0.6°C 68% 6.0 mph W9.7 kmh W 9.2 mph14.8 kmh 29.92 in1013.2 mb 0.00 in0.0 mm 0.00 in0.0 mm 0.00 in0.0 mm
03:30 AM 43.0°F6.1°C 32.8°F0.4°C 67% 4.9 mph WNW7.9 kmh WNW 6.9 mph11.1 kmh 29.92 in1013.2 mb 0.00 in0.0 mm 0.00 in0.0 mm 0.00 in0.0 mm
03:29 AM 43.0°F6.1°C 32.4°F0.2°C 66% 3.6 mph W5.8 kmh W 5.8 mph9.3 kmh 29.92 in1013.2 mb 0.00 in0.0 mm 0.00 in0.0 mm 0.00 in0.0 mm
03:28 AM 43.2°F6.2°C 32.2°F0.1°C 65% 4.7 mph W7.6 kmh W 6.9 mph11.1 kmh 29.93 in1013.5 mb 0.00 in0.0 mm 0.00 in0.0 mm 0.00 in0.0 mm
03:27 AM 43.2°F6.2°C 32.2°F0.1°C 65% 4.9 mph WNW7.9 kmh WNW 6.9 mph11.1 kmh 29.92 in1013.2 mb 0.00 in0.0 mm 0.00 in0.0 mm 0.00 in0.0 mm
03:26 AM 43.2°F6.2°C 31.9°F-0.1°C 64% 3.6 mph WSW5.8 kmh WSW 5.8 mph9.3 kmh 29.91 in1012.9 mb 0.00 in0.0 mm 0.00 in0.0 mm 0.00 in0.0 mm
03:25 AM 43.2°F6.2°C 31.5°F-0.3°C 63% 5.8 mph WNW9.3 kmh WNW 8.1 mph13.0 kmh 29.92 in1013.2 mb 0.00 in0.0 mm 0.00 in0.0 mm 0.00 in0.0 mm
03:24 AM 43.2°F6.2°C 31.9°F-0.1°C 64% 4.0 mph NW6.4 kmh NW 5.8 mph9.3 kmh 29.92 in1013.2 mb 0.00 in0.0 mm 0.00 in0.0 mm 0.00 in0.0 mm
03:23 AM 43.2°F6.2°C 31.9°F-0.1°C 64% 2.9 mph WSW4.7 kmh WSW 4.5 mph7.2 kmh 29.92 in1013.2 mb 0.00 in0.0 mm 0.00 in0.0 mm 0.00 in0.0 mm
03:22 AM 43.2°F6.2°C 31.9°F-0.1°C 64% 3.4 mph W5.5 kmh W 4.5 mph7.2 kmh 29.91 in1012.9 mb 0.00 in0.0 mm 0.00 in0.0 mm 0.00 in0.0 mm
03:21 AM 43.2°F6.2°C 31.5°F-0.3°C 63% 2.9 mph SW4.7 kmh SW 4.5 mph7.2 kmh 29.91 in1012.9 mb 0.00 in0.0 mm 0.00 in0.0 mm 0.00 in0.0 mm
03:20 AM 43.2°F6.2°C 31.5°F-0.3°C 63% 3.6 mph WNW5.8 kmh WNW 5.8 mph9.3 kmh 29.91 in1012.9 mb 0.00 in0.0 mm 0.00 in0.0 mm 0.00 in0.0 mm
03:19 AM 43.2°F6.2°C 31.9°F-0.1°C 64% 4.7 mph SW7.6 kmh SW 6.9 mph11.1 kmh 29.91 in1012.9 mb 0.00 in0.0 mm 0.00 in0.0 mm 0.00 in0.0 mm
03:18 AM 43.2°F6.2°C 31.5°F-0.3°C 63% 4.9 mph WNW7.9 kmh WNW 5.8 mph9.3 kmh 29.92 in1013.2 mb 0.00 in0.0 mm 0.00 in0.0 mm 0.00 in0.0 mm
03:17 AM 43.2°F6.2°C 31.5°F-0.3°C 63% 5.8 mph W9.3 kmh W 9.2 mph14.8 kmh 29.91 in1012.9 mb 0.00 in0.0 mm 0.00 in0.0 mm 0.00 in0.0 mm
03:16 AM 43.2°F6.2°C 31.5°F-0.3°C 63% 5.4 mph W8.7 kmh W 8.1 mph13.0 kmh 29.91 in1012.9 mb 0.00 in0.0 mm 0.00 in0.0 mm 0.00 in0.0 mm
03:15 AM 43.2°F6.2°C 31.9°F-0.1°C 64% 5.8 mph NW9.3 kmh NW 9.2 mph14.8 kmh 29.91 in1012.9 mb 0.00 in0.0 mm 0.00 in0.0 mm 0.00 in0.0 mm
03:14 AM 43.2°F6.2°C 31.9°F-0.1°C 64% 6.0 mph WNW9.7 kmh WNW 8.1 mph13.0 kmh 29.91 in1012.9 mb 0.00 in0.0 mm 0.00 in0.0 mm 0.00 in0.0 mm
03:13 AM 43.2°F6.2°C 31.9°F-0.1°C 64% 2.9 mph WSW4.7 kmh WSW 4.5 mph7.2 kmh 29.91 in1012.9 mb 0.00 in0.0 mm 0.00 in0.0 mm 0.00 in0.0 mm
03:12 AM 43.3°F6.3°C 32.0°F0.0°C 64% 3.1 mph W5.0 kmh W 4.5 mph7.2 kmh 29.91 in1012.9 mb 0.00 in0.0 mm 0.00 in0.0 mm 0.00 in0.0 mm
03:11 AM 43.3°F6.3°C 32.0°F0.0°C 64% 2.7 mph W4.3 kmh W 5.8 mph9.3 kmh 29.91 in1012.9 mb 0.00 in0.0 mm 0.00 in0.0 mm 0.00 in0.0 mm
03:10 AM 43.3°F6.3°C 32.0°F0.0°C 64% 2.2 mph WSW3.5 kmh WSW 3.4 mph5.5 kmh 29.91 in1012.9 mb 0.00 in0.0 mm 0.00 in0.0 mm 0.00 in0.0 mm
03:09 AM 43.3°F6.3°C 32.0°F0.0°C 64% 2.0 mph WNW3.2 kmh WNW 3.4 mph5.5 kmh 29.91 in1012.9 mb 0.00 in0.0 mm 0.00 in0.0 mm 0.00 in0.0 mm
03:08 AM 43.3°F6.3°C 32.0°F0.0°C 64% 4.0 mph SW6.4 kmh SW 4.5 mph7.2 kmh 29.91 in1012.9 mb 0.00 in0.0 mm 0.00 in0.0 mm 0.00 in0.0 mm
03:07 AM 43.3°F6.3°C 32.0°F0.0°C 64% 6.3 mph NW10.1 kmh NW 10.3 mph16.6 kmh 29.91 in1012.9 mb 0.00 in0.0 mm 0.00 in0.0 mm 0.00 in0.0 mm
03:06 AM 43.2°F6.2°C 31.9°F-0.1°C 64% 5.8 mph W9.3 kmh W 8.1 mph13.0 kmh 29.91 in1012.9 mb 0.00 in0.0 mm 0.00 in0.0 mm 0.00 in0.0 mm
03:05 AM 43.2°F6.2°C 31.9°F-0.1°C 64% 8.5 mph WSW13.7 kmh WSW 10.3 mph16.6 kmh 29.91 in1012.9 mb 0.00 in0.0 mm 0.00 in0.0 mm 0.00 in0.0 mm
03:04 AM 43.2°F6.2°C 31.9°F-0.1°C 64% 6.5 mph W10.5 kmh W 9.2 mph14.8 kmh 29.91 in1012.9 mb 0.00 in0.0 mm 0.00 in0.0 mm 0.00 in0.0 mm
03:03 AM 43.2°F6.2°C 32.2°F0.1°C 65% 4.9 mph W7.9 kmh W 10.3 mph16.6 kmh 29.91 in1012.9 mb 0.00 in0.0 mm 0.00 in0.0 mm 0.00 in0.0 mm
03:02 AM 43.2°F6.2°C 32.2°F0.1°C 65% 5.6 mph W9.0 kmh W 8.1 mph13.0 kmh 29.91 in1012.9 mb 0.00 in0.0 mm 0.00 in0.0 mm 0.00 in0.0 mm
03:01 AM 43.2°F6.2°C 32.2°F0.1°C 65% 2.9 mph W4.7 kmh W 4.5 mph7.2 kmh 29.91 in1012.9 mb 0.00 in0.0 mm 0.00 in0.0 mm 0.00 in0.0 mm
03:00 AM 43.2°F6.2°C 32.6°F0.3°C 66% 5.8 mph NW9.3 kmh NW 10.3 mph16.6 kmh 29.91 in1012.9 mb 0.00 in0.0 mm 0.00 in0.0 mm 0.00 in0.0 mm
02:59 AM 43.3°F6.3°C 32.3°F0.2°C 65% 3.8 mph WNW6.1 kmh WNW 5.8 mph9.3 kmh 29.91 in1012.9 mb 0.00 in0.0 mm 0.00 in0.0 mm 0.00 in0.0 mm
02:58 AM 43.3°F6.3°C 32.3°F0.2°C 65% 4.7 mph WSW7.6 kmh WSW 9.2 mph14.8 kmh 29.91 in1012.9 mb 0.00 in0.0 mm 0.00 in0.0 mm 0.00 in0.0 mm
02:57 AM 43.3°F6.3°C 32.3°F0.2°C 65% 7.6 mph W12.2 kmh W 10.3 mph16.6 kmh 29.91 in1012.9 mb 0.00 in0.0 mm 0.00 in0.0 mm 0.00 in0.0 mm
02:56 AM 43.2°F6.2°C 32.2°F0.1°C 65% 3.8 mph WNW6.1 kmh WNW 6.9 mph11.1 kmh 29.91 in1012.9 mb 0.00 in0.0 mm 0.00 in0.0 mm 0.00 in0.0 mm
02:55 AM 43.2°F6.2°C 32.2°F0.1°C 65% 8.1 mph W13.0 kmh W 11.4 mph18.3 kmh 29.91 in1012.9 mb 0.00 in0.0 mm 0.00 in0.0 mm 0.00 in0.0 mm
02:54 AM 43.2°F6.2°C 32.2°F0.1°C 65% 6.3 mph W10.1 kmh W 10.3 mph16.6 kmh 29.90 in1012.5 mb 0.00 in0.0 mm 0.00 in0.0 mm 0.00 in0.0 mm
02:53 AM 43.2°F6.2°C 32.2°F0.1°C 65% 5.8 mph WNW9.3 kmh WNW 6.9 mph11.1 kmh 29.91 in1012.9 mb 0.00 in0.0 mm 0.00 in0.0 mm 0.00 in0.0 mm
02:52 AM 43.0°F6.1°C 32.8°F0.4°C 67% 2.5 mph WNW4.0 kmh WNW 3.4 mph5.5 kmh 29.91 in1012.9 mb 0.00 in0.0 mm 0.00 in0.0 mm 0.00 in0.0 mm
02:51 AM 43.0°F6.1°C 32.4°F0.2°C 66% 6.3 mph WNW10.1 kmh WNW 8.1 mph13.0 kmh 29.91 in1012.9 mb 0.00 in0.0 mm 0.00 in0.0 mm 0.00 in0.0 mm
02:50 AM 43.0°F6.1°C 32.8°F0.4°C 67% 5.8 mph WNW9.3 kmh WNW 11.4 mph18.3 kmh 29.91 in1012.9 mb 0.00 in0.0 mm 0.00 in0.0 mm 0.00 in0.0 mm
02:49 AM 42.8°F6.0°C 32.2°F0.1°C 66% 6.5 mph NW10.5 kmh NW 8.1 mph13.0 kmh 29.91 in1012.9 mb 0.00 in0.0 mm 0.00 in0.0 mm 0.00 in0.0 mm
02:48 AM 42.8°F6.0°C 32.6°F0.3°C 67% 3.6 mph NW5.8 kmh NW 4.5 mph7.2 kmh 29.91 in1012.9 mb 0.00 in0.0 mm 0.00 in0.0 mm 0.00 in0.0 mm
02:47 AM 42.8°F6.0°C 32.6°F0.3°C 67% 1.8 mph W2.9 kmh W 2.2 mph3.5 kmh 29.91 in1012.9 mb 0.00 in0.0 mm 0.00 in0.0 mm 0.00 in0.0 mm
02:46 AM 42.6°F5.9°C 32.4°F0.2°C 67% 2.5 mph W4.0 kmh W 3.4 mph5.5 kmh 29.91 in1012.9 mb 0.00 in0.0 mm 0.00 in0.0 mm 0.00 in0.0 mm
02:45 AM 42.4°F5.8°C 32.2°F0.1°C 67% 3.8 mph WSW6.1 kmh WSW 5.8 mph9.3 kmh 29.91 in1012.9 mb 0.00 in0.0 mm 0.00 in0.0 mm 0.00 in0.0 mm
02:44 AM 42.4°F5.8°C 33.0°F0.6°C 69% 2.2 mph W3.5 kmh W 3.4 mph5.5 kmh 29.91 in1012.9 mb 0.00 in0.0 mm 0.00 in0.0 mm 0.00 in0.0 mm
02:43 AM 42.4°F5.8°C 32.6°F0.3°C 68% 4.0 mph WSW6.4 kmh WSW 4.5 mph7.2 kmh 29.91 in1012.9 mb 0.00 in0.0 mm 0.00 in0.0 mm 0.00 in0.0 mm
02:42 AM 42.4°F5.8°C 32.6°F0.3°C 68% 3.6 mph WSW5.8 kmh WSW 4.5 mph7.2 kmh 29.91 in1012.9 mb 0.00 in0.0 mm 0.00 in0.0 mm 0.00 in0.0 mm
02:41 AM 42.4°F5.8°C 33.3°F0.7°C 70% 2.2 mph W3.5 kmh W 3.4 mph5.5 kmh 29.91 in1012.9 mb 0.00 in0.0 mm 0.00 in0.0 mm 0.00 in0.0 mm
02:40 AM 42.4°F5.8°C 33.0°F0.6°C 69% 2.2 mph W3.5 kmh W 3.4 mph5.5 kmh 29.91 in1012.9 mb 0.00 in0.0 mm 0.00 in0.0 mm 0.00 in0.0 mm
02:39 AM 42.4°F5.8°C 32.6°F0.3°C 68% 2.0 mph WNW3.2 kmh WNW 3.4 mph5.5 kmh 29.91 in1012.9 mb 0.00 in0.0 mm 0.00 in0.0 mm 0.00 in0.0 mm
02:38 AM 42.6°F5.9°C 33.2°F0.7°C 69% 3.1 mph NNW5.0 kmh NNW 5.8 mph9.3 kmh 29.91 in1012.9 mb 0.00 in0.0 mm 0.00 in0.0 mm 0.00 in0.0 mm
02:37 AM 43.0°F6.1°C 33.5°F0.8°C 69% 1.8 mph WSW2.9 kmh WSW 2.2 mph3.5 kmh 29.91 in1012.9 mb 0.00 in0.0 mm 0.00 in0.0 mm 0.00 in0.0 mm
02:36 AM 43.3°F6.3°C 33.1°F0.6°C 67% 4.7 mph WSW7.6 kmh WSW 6.9 mph11.1 kmh 29.91 in1012.9 mb 0.00 in0.0 mm 0.00 in0.0 mm 0.00 in0.0 mm
02:35 AM 43.7°F6.5°C 33.1°F0.6°C 66% 4.5 mph NW7.2 kmh NW 5.8 mph9.3 kmh 29.91 in1012.9 mb 0.00 in0.0 mm 0.00 in0.0 mm 0.00 in0.0 mm
02:34 AM 43.9°F6.6°C 32.5°F0.3°C 64% 7.4 mph WNW11.9 kmh WNW 9.2 mph14.8 kmh 29.91 in1012.9 mb 0.00 in0.0 mm 0.00 in0.0 mm 0.00 in0.0 mm
02:33 AM 43.9°F6.6°C 31.7°F-0.2°C 62% 6.0 mph NW9.7 kmh NW 10.3 mph16.6 kmh 29.91 in1012.9 mb 0.00 in0.0 mm 0.00 in0.0 mm 0.00 in0.0 mm
02:32 AM 43.9°F6.6°C 31.3°F-0.4°C 61% 1.8 mph WNW2.9 kmh WNW 2.2 mph3.5 kmh 29.91 in1012.9 mb 0.00 in0.0 mm 0.00 in0.0 mm 0.00 in0.0 mm
02:31 AM 44.1°F6.7°C 31.1°F-0.5°C 60% 2.2 mph W3.5 kmh W 3.4 mph5.5 kmh 29.91 in1012.9 mb 0.00 in0.0 mm 0.00 in0.0 mm 0.00 in0.0 mm
02:30 AM 44.1°F6.7°C 31.1°F-0.5°C 60% 2.9 mph NW4.7 kmh NW 3.4 mph5.5 kmh 29.91 in1012.9 mb 0.00 in0.0 mm 0.00 in0.0 mm 0.00 in0.0 mm
02:29 AM 44.1°F6.7°C 31.1°F-0.5°C 60% 3.4 mph W5.5 kmh W 4.5 mph7.2 kmh 29.91 in1012.9 mb 0.00 in0.0 mm 0.00 in0.0 mm 0.00 in0.0 mm
02:28 AM 44.1°F6.7°C 31.1°F-0.5°C 60% 2.2 mph WNW3.5 kmh WNW 3.4 mph5.5 kmh 29.91 in1012.9 mb 0.00 in0.0 mm 0.00 in0.0 mm 0.00 in0.0 mm
02:27 AM 44.2°F6.8°C 30.8°F-0.7°C 59% 2.7 mph WNW4.3 kmh WNW 4.5 mph7.2 kmh 29.91 in1012.9 mb 0.00 in0.0 mm 0.00 in0.0 mm 0.00 in0.0 mm
02:26 AM 44.2°F6.8°C 30.8°F-0.7°C 59% 4.5 mph N7.2 kmh N 6.9 mph11.1 kmh 29.90 in1012.5 mb 0.00 in0.0 mm 0.00 in0.0 mm 0.00 in0.0 mm
02:25 AM 44.2°F6.8°C 30.8°F-0.7°C 59% 1.8 mph WNW2.9 kmh WNW 2.2 mph3.5 kmh 29.90 in1012.5 mb 0.00 in0.0 mm 0.00 in0.0 mm 0.00 in0.0 mm
02:24 AM 44.2°F6.8°C 30.4°F-0.9°C 58% 5.8 mph WNW9.3 kmh WNW 9.2 mph14.8 kmh 29.90 in1012.5 mb 0.00 in0.0 mm 0.00 in0.0 mm 0.00 in0.0 mm
02:23 AM 44.2°F6.8°C 30.8°F-0.7°C 59% 3.8 mph W6.1 kmh W 5.8 mph9.3 kmh 29.91 in1012.9 mb 0.00 in0.0 mm 0.00 in0.0 mm 0.00 in0.0 mm
02:22 AM 44.1°F6.7°C 30.7°F-0.7°C 59% 2.0 mph W3.2 kmh W 2.2 mph3.5 kmh 29.91 in1012.9 mb 0.00 in0.0 mm 0.00 in0.0 mm 0.00 in0.0 mm
02:21 AM 44.1°F6.7°C 30.3°F-0.9°C 58% 1.8 mph WNW2.9 kmh WNW 2.2 mph3.5 kmh 29.90 in1012.5 mb 0.00 in0.0 mm 0.00 in0.0 mm 0.00 in0.0 mm
02:20 AM 44.1°F6.7°C 30.3°F-0.9°C 58% 5.4 mph NW8.7 kmh NW 6.9 mph11.1 kmh 29.90 in1012.5 mb 0.00 in0.0 mm 0.00 in0.0 mm 0.00 in0.0 mm
02:19 AM 44.1°F6.7°C 30.7°F-0.7°C 59% 1.6 mph WNW2.6 kmh WNW 2.2 mph3.5 kmh 29.91 in1012.9 mb 0.00 in0.0 mm 0.00 in0.0 mm 0.00 in0.0 mm
02:18 AM 44.2°F6.8°C 30.8°F-0.7°C 59% 3.4 mph WSW5.5 kmh WSW 5.8 mph9.3 kmh 29.90 in1012.5 mb 0.00 in0.0 mm 0.00 in0.0 mm 0.00 in0.0 mm
02:17 AM 44.2°F6.8°C 30.4°F-0.9°C 58% 2.2 mph W3.5 kmh W 4.5 mph7.2 kmh 29.90 in1012.5 mb 0.00 in0.0 mm 0.00 in0.0 mm 0.00 in0.0 mm
02:16 AM 44.4°F6.9°C 30.6°F-0.8°C 58% 2.2 mph WSW3.5 kmh WSW 3.4 mph5.5 kmh 29.90 in1012.5 mb 0.00 in0.0 mm 0.00 in0.0 mm 0.00 in0.0 mm
02:15 AM 44.4°F6.9°C 30.1°F-1.1°C 57% 2.9 mph NW4.7 kmh NW 3.4 mph5.5 kmh 29.91 in1012.9 mb 0.00 in0.0 mm 0.00 in0.0 mm 0.00 in0.0 mm
02:14 AM 44.4°F6.9°C 30.1°F-1.1°C 57% 3.4 mph NW5.5 kmh NW 4.5 mph7.2 kmh 29.90 in1012.5 mb 0.00 in0.0 mm 0.00 in0.0 mm 0.00 in0.0 mm
02:13 AM 44.4°F6.9°C 30.1°F-1.1°C 57% 1.3 mph NW2.1 kmh NW 3.4 mph5.5 kmh 29.90 in1012.5 mb 0.00 in0.0 mm 0.00 in0.0 mm 0.00 in0.0 mm
02:12 AM 44.4°F6.9°C 30.1°F-1.1°C 57% 2.9 mph WNW4.7 kmh WNW 4.5 mph7.2 kmh 29.91 in1012.9 mb 0.00 in0.0 mm 0.00 in0.0 mm 0.00 in0.0 mm
02:11 AM 44.4°F6.9°C 30.1°F-1.1°C 57% 3.4 mph NW5.5 kmh NW 5.8 mph9.3 kmh 29.90 in1012.5 mb 0.00 in0.0 mm 0.00 in0.0 mm 0.00 in0.0 mm
02:10 AM 44.4°F6.9°C 30.1°F-1.1°C 57% 1.1 mph NW1.8 kmh NW 1.1 mph1.8 kmh 29.90 in1012.5 mb 0.00 in0.0 mm 0.00 in0.0 mm 0.00 in0.0 mm
02:09 AM 44.4°F6.9°C 30.1°F-1.1°C 57% 2.9 mph NW4.7 kmh NW 6.9 mph11.1 kmh 29.90 in1012.5 mb 0.00 in0.0 mm 0.00 in0.0 mm 0.00 in0.0 mm
02:08 AM 44.4°F6.9°C 30.1°F-1.1°C 57% 2.9 mph W4.7 kmh W 4.5 mph7.2 kmh 29.91 in1012.9 mb 0.00 in0.0 mm 0.00 in0.0 mm 0.00 in0.0 mm
02:07 AM 44.4°F6.9°C 30.1°F-1.1°C 57% 1.6 mph NW2.6 kmh NW 2.2 mph3.5 kmh 29.90 in1012.5 mb 0.00 in0.0 mm 0.00 in0.0 mm 0.00 in0.0 mm
02:06 AM 44.4°F6.9°C 29.7°F-1.3°C 56% 4.0 mph W6.4 kmh W 4.5 mph7.2 kmh 29.90 in1012.5 mb 0.00 in0.0 mm 0.00 in0.0 mm 0.00 in0.0 mm
02:05 AM 44.4°F6.9°C 29.7°F-1.3°C 56% 6.3 mph WNW10.1 kmh WNW 10.3 mph16.6 kmh 29.90 in1012.5 mb 0.00 in0.0 mm 0.00 in0.0 mm 0.00 in0.0 mm
02:04 AM 44.2°F6.8°C 29.5°F-1.4°C 56% 6.0 mph NW9.7 kmh NW 10.3 mph16.6 kmh 29.91 in1012.9 mb 0.00 in0.0 mm 0.00 in0.0 mm 0.00 in0.0 mm
02:03 AM 44.2°F6.8°C 30.4°F-0.9°C 58% 2.5 mph WNW4.0 kmh WNW 4.5 mph7.2 kmh 29.90 in1012.5 mb 0.00 in0.0 mm 0.00 in0.0 mm 0.00 in0.0 mm
02:02 AM 44.2°F6.8°C 30.4°F-0.9°C 58% 4.0 mph W6.4 kmh W 5.8 mph9.3 kmh 29.89 in1012.2 mb 0.00 in0.0 mm 0.00 in0.0 mm 0.00 in0.0 mm
02:01 AM 44.2°F6.8°C 30.8°F-0.7°C 59% 2.5 mph NW4.0 kmh NW 3.4 mph5.5 kmh 29.90 in1012.5 mb 0.00 in0.0 mm 0.00 in0.0 mm 0.00 in0.0 mm
02:00 AM 44.1°F6.7°C 30.7°F-0.7°C 59% 5.6 mph N9.0 kmh N 6.9 mph11.1 kmh 29.90 in1012.5 mb 0.00 in0.0 mm 0.00 in0.0 mm 0.00 in0.0 mm
01:59 AM 44.1°F6.7°C 30.7°F-0.7°C 59% 4.3 mph WNW6.9 kmh WNW 6.9 mph11.1 kmh 29.90 in1012.5 mb 0.00 in0.0 mm 0.00 in0.0 mm 0.00 in0.0 mm
01:58 AM 44.2°F6.8°C 31.2°F-0.4°C 60% 2.5 mph W4.0 kmh W 4.5 mph7.2 kmh 29.90 in1012.5 mb 0.00 in0.0 mm 0.00 in0.0 mm 0.00 in0.0 mm
01:57 AM 44.2°F6.8°C 31.2°F-0.4°C 60% 3.4 mph WNW5.5 kmh WNW 4.5 mph7.2 kmh 29.90 in1012.5 mb 0.00 in0.0 mm 0.00 in0.0 mm 0.00 in0.0 mm
01:56 AM 44.2°F6.8°C 31.2°F-0.4°C 60% 2.0 mph NW3.2 kmh NW 2.2 mph3.5 kmh 29.89 in1012.2 mb 0.00 in0.0 mm 0.00 in0.0 mm 0.00 in0.0 mm
01:55 AM 44.2°F6.8°C 30.8°F-0.7°C 59% 4.3 mph NW6.9 kmh NW 5.8 mph9.3 kmh 29.90 in1012.5 mb 0.00 in0.0 mm 0.00 in0.0 mm 0.00 in0.0 mm
01:54 AM 44.2°F6.8°C 31.2°F-0.4°C 60% 4.0 mph W6.4 kmh W 6.9 mph11.1 kmh 29.90 in1012.5 mb 0.00 in0.0 mm 0.00 in0.0 mm 0.00 in0.0 mm
01:53 AM 44.2°F6.8°C 31.2°F-0.4°C 60% 4.3 mph W6.9 kmh W 8.1 mph13.0 kmh 29.90 in1012.5 mb 0.00 in0.0 mm 0.00 in0.0 mm 0.00 in0.0 mm
01:52 AM 44.2°F6.8°C 31.2°F-0.4°C 60% 3.8 mph WNW6.1 kmh WNW 5.8 mph9.3 kmh 29.90 in1012.5 mb 0.00 in0.0 mm 0.00 in0.0 mm 0.00 in0.0 mm
01:51 AM 44.2°F6.8°C 30.8°F-0.7°C 59% 4.0 mph NW6.4 kmh NW 5.8 mph9.3 kmh 29.90 in1012.5 mb 0.00 in0.0 mm 0.00 in0.0 mm 0.00 in0.0 mm
01:50 AM 44.2°F6.8°C 31.2°F-0.4°C 60% 3.4 mph N5.5 kmh N 6.9 mph11.1 kmh 29.90 in1012.5 mb 0.00 in0.0 mm 0.00 in0.0 mm 0.00 in0.0 mm
01:49 AM 44.2°F6.8°C 31.6°F-0.2°C 61% 3.1 mph WNW5.0 kmh WNW 5.8 mph9.3 kmh 29.90 in1012.5 mb 0.00 in0.0 mm 0.00 in0.0 mm 0.00 in0.0 mm
01:48 AM 44.2°F6.8°C 31.6°F-0.2°C 61% 5.4 mph WNW8.7 kmh WNW 8.1 mph13.0 kmh 29.90 in1012.5 mb 0.00 in0.0 mm 0.00 in0.0 mm 0.00 in0.0 mm
01:47 AM 44.2°F6.8°C 31.6°F-0.2°C 61% 6.0 mph NW9.7 kmh NW 8.1 mph13.0 kmh 29.89 in1012.2 mb 0.00 in0.0 mm 0.00 in0.0 mm 0.00 in0.0 mm
01:46 AM 44.2°F6.8°C 31.6°F-0.2°C 61% 8.5 mph W13.7 kmh W 11.4 mph18.3 kmh 29.90 in1012.5 mb 0.00 in0.0 mm 0.00 in0.0 mm 0.00 in0.0 mm
01:45 AM 44.2°F6.8°C 31.6°F-0.2°C 61% 9.2 mph WNW14.8 kmh WNW 12.5 mph20.1 kmh 29.90 in1012.5 mb 0.00 in0.0 mm 0.00 in0.0 mm 0.00 in0.0 mm
01:44 AM 44.2°F6.8°C 31.6°F-0.2°C 61% 3.8 mph NW6.1 kmh NW 4.5 mph7.2 kmh 29.89 in1012.2 mb 0.00 in0.0 mm 0.00 in0.0 mm 0.00 in0.0 mm
01:43 AM 44.1°F6.7°C 31.5°F-0.3°C 61% 5.4 mph W8.7 kmh W 8.1 mph13.0 kmh 29.89 in1012.2 mb 0.00 in0.0 mm 0.00 in0.0 mm 0.00 in0.0 mm
01:42 AM 44.1°F6.7°C 31.5°F-0.3°C 61% 6.0 mph NW9.7 kmh NW 8.1 mph13.0 kmh 29.90 in1012.5 mb 0.00 in0.0 mm 0.00 in0.0 mm 0.00 in0.0 mm
01:41 AM 44.1°F6.7°C 31.9°F-0.1°C 62% 4.3 mph WNW6.9 kmh WNW 6.9 mph11.1 kmh 29.90 in1012.5 mb 0.00 in0.0 mm 0.00 in0.0 mm 0.00 in0.0 mm
01:40 AM 44.1°F6.7°C 31.9°F-0.1°C 62% 3.1 mph W5.0 kmh W 5.8 mph9.3 kmh 29.90 in1012.5 mb 0.00 in0.0 mm 0.00 in0.0 mm 0.00 in0.0 mm
01:39 AM 43.9°F6.6°C 31.7°F-0.2°C 62% 7.4 mph WNW11.9 kmh WNW 9.2 mph14.8 kmh 29.89 in1012.2 mb 0.00 in0.0 mm 0.00 in0.0 mm 0.00 in0.0 mm
01:38 AM 43.9°F6.6°C 31.7°F-0.2°C 62% 6.5 mph NW10.5 kmh NW 9.2 mph14.8 kmh 29.89 in1012.2 mb 0.00 in0.0 mm 0.00 in0.0 mm 0.00 in0.0 mm
01:37 AM 43.7°F6.5°C 31.9°F-0.1°C 63% 2.2 mph WNW3.5 kmh WNW 4.5 mph7.2 kmh 29.89 in1012.2 mb 0.00 in0.0 mm 0.00 in0.0 mm 0.00 in0.0 mm
01:36 AM 43.7°F6.5°C 31.9°F-0.1°C 63% 2.2 mph WNW3.5 kmh WNW 2.2 mph3.5 kmh 29.89 in1012.2 mb 0.00 in0.0 mm 0.00 in0.0 mm 0.00 in0.0 mm
01:35 AM 43.5°F6.4°C 32.1°F0.1°C 64% 3.6 mph WSW5.8 kmh WSW 4.5 mph7.2 kmh 29.89 in1012.2 mb 0.00 in0.0 mm 0.00 in0.0 mm 0.00 in0.0 mm
01:34 AM 43.5°F6.4°C 32.1°F0.1°C 64% 1.8 mph WSW2.9 kmh WSW 2.2 mph3.5 kmh 29.90 in1012.5 mb 0.00 in0.0 mm 0.00 in0.0 mm 0.00 in0.0 mm
01:33 AM 43.5°F6.4°C 32.1°F0.1°C 64% 2.9 mph WNW4.7 kmh WNW 3.4 mph5.5 kmh 29.90 in1012.5 mb 0.00 in0.0 mm 0.00 in0.0 mm 0.00 in0.0 mm
01:32 AM 43.5°F6.4°C 32.5°F0.3°C 65% 1.1 mph W1.8 kmh W 1.1 mph1.8 kmh 29.90 in1012.5 mb 0.00 in0.0 mm 0.00 in0.0 mm 0.00 in0.0 mm
01:31 AM 43.5°F6.4°C 32.5°F0.3°C 65% 1.6 mph W2.6 kmh W 2.2 mph3.5 kmh 29.90 in1012.5 mb 0.00 in0.0 mm 0.00 in0.0 mm 0.00 in0.0 mm
01:30 AM 43.5°F6.4°C 32.5°F0.3°C 65% 2.5 mph NW4.0 kmh NW 4.5 mph7.2 kmh 29.90 in1012.5 mb 0.00 in0.0 mm 0.00 in0.0 mm 0.00 in0.0 mm
01:29 AM 43.5°F6.4°C 32.9°F0.5°C 66% 0.7 mph WNW1.1 kmh WNW 1.1 mph1.8 kmh 29.89 in1012.2 mb 0.00 in0.0 mm 0.00 in0.0 mm 0.00 in0.0 mm
01:28 AM 43.7°F6.5°C 32.7°F0.4°C 65% 1.8 mph WNW2.9 kmh WNW 3.4 mph5.5 kmh 29.90 in1012.5 mb 0.00 in0.0 mm 0.00 in0.0 mm 0.00 in0.0 mm
01:27 AM 43.7°F6.5°C 32.7°F0.4°C 65% 0.2 mph WNW0.3 kmh WNW 1.1 mph1.8 kmh 29.89 in1012.2 mb 0.00 in0.0 mm 0.00 in0.0 mm 0.00 in0.0 mm
01:26 AM 43.7°F6.5°C 32.3°F0.2°C 64% 2.5 mph WNW4.0 kmh WNW 3.4 mph5.5 kmh 29.89 in1012.2 mb 0.00 in0.0 mm 0.00 in0.0 mm 0.00 in0.0 mm
01:25 AM 43.7°F6.5°C 31.9°F-0.1°C 63% 2.2 mph NNE3.5 kmh NNE 3.4 mph5.5 kmh 29.89 in1012.2 mb 0.00 in0.0 mm 0.00 in0.0 mm 0.00 in0.0 mm
01:24 AM 43.7°F6.5°C 32.3°F0.2°C 64% 0.7 mph W1.1 kmh W 1.1 mph1.8 kmh 29.89 in1012.2 mb 0.00 in0.0 mm 0.00 in0.0 mm 0.00 in0.0 mm
01:23 AM 43.9°F6.6°C 32.1°F0.1°C 63% 1.3 mph W2.1 kmh W 2.2 mph3.5 kmh 29.89 in1012.2 mb 0.00 in0.0 mm 0.00 in0.0 mm 0.00 in0.0 mm
01:22 AM 43.9°F6.6°C 32.1°F0.1°C 63% 4.0 mph NW6.4 kmh NW 8.1 mph13.0 kmh 29.90 in1012.5 mb 0.00 in0.0 mm 0.00 in0.0 mm 0.00 in0.0 mm
01:21 AM 43.9°F6.6°C 32.1°F0.1°C 63% 2.7 mph WNW4.3 kmh WNW 5.8 mph9.3 kmh 29.89 in1012.2 mb 0.00 in0.0 mm 0.00 in0.0 mm 0.00 in0.0 mm
01:20 AM 44.1°F6.7°C 31.9°F-0.1°C 62% 3.1 mph W5.0 kmh W 5.8 mph9.3 kmh 29.88 in1011.9 mb 0.00 in0.0 mm 0.00 in0.0 mm 0.00 in0.0 mm
01:19 AM 44.1°F6.7°C 31.9°F-0.1°C 62% 0.9 mph W1.4 kmh W 2.2 mph3.5 kmh 29.89 in1012.2 mb 0.00 in0.0 mm 0.00 in0.0 mm 0.00 in0.0 mm
01:18 AM 44.2°F6.8°C 31.6°F-0.2°C 61% 3.4 mph WNW5.5 kmh WNW 6.9 mph11.1 kmh 29.88 in1011.9 mb 0.00 in0.0 mm 0.00 in0.0 mm 0.00 in0.0 mm
01:17 AM 44.4°F6.9°C 31.4°F-0.3°C 60% 6.9 mph W11.1 kmh W 9.2 mph14.8 kmh 29.88 in1011.9 mb 0.00 in0.0 mm 0.00 in0.0 mm 0.00 in0.0 mm
01:16 AM 44.4°F6.9°C 31.0°F-0.6°C 59% 8.1 mph WNW13.0 kmh WNW 13.6 mph21.9 kmh 29.88 in1011.9 mb 0.00 in0.0 mm 0.00 in0.0 mm 0.00 in0.0 mm
01:15 AM 44.4°F6.9°C 30.6°F-0.8°C 58% 4.9 mph NW7.9 kmh NW 8.1 mph13.0 kmh 29.88 in1011.9 mb 0.00 in0.0 mm 0.00 in0.0 mm 0.00 in0.0 mm
01:14 AM 44.4°F6.9°C 30.6°F-0.8°C 58% 4.7 mph NW7.6 kmh NW 5.8 mph9.3 kmh 29.88 in1011.9 mb 0.00 in0.0 mm 0.00 in0.0 mm 0.00 in0.0 mm
01:13 AM 44.4°F6.9°C 30.6°F-0.8°C 58% 10.7 mph NNW17.2 kmh NNW 13.6 mph21.9 kmh 29.89 in1012.2 mb 0.00 in0.0 mm 0.00 in0.0 mm 0.00 in0.0 mm
01:12 AM 44.4°F6.9°C 30.6°F-0.8°C 58% 4.7 mph NW7.6 kmh NW 5.8 mph9.3 kmh 29.88 in1011.9 mb 0.00 in0.0 mm 0.00 in0.0 mm 0.00 in0.0 mm
01:11 AM 44.4°F6.9°C 30.1°F-1.1°C 57% 2.2 mph NW3.5 kmh NW 3.4 mph5.5 kmh 29.89 in1012.2 mb 0.00 in0.0 mm 0.00 in0.0 mm 0.00 in0.0 mm
01:10 AM 44.4°F6.9°C 30.1°F-1.1°C 57% 4.0 mph WNW6.4 kmh WNW 5.8 mph9.3 kmh 29.88 in1011.9 mb 0.00 in0.0 mm 0.00 in0.0 mm 0.00 in0.0 mm
01:09 AM 44.6°F7.0°C 30.3°F-0.9°C 57% 3.6 mph W5.8 kmh W 6.9 mph11.1 kmh 29.89 in1012.2 mb 0.00 in0.0 mm 0.00 in0.0 mm 0.00 in0.0 mm
01:08 AM 44.6°F7.0°C 30.3°F-0.9°C 57% 2.5 mph NW4.0 kmh NW 4.5 mph7.2 kmh 29.89 in1012.2 mb 0.00 in0.0 mm 0.00 in0.0 mm 0.00 in0.0 mm
01:07 AM 44.6°F7.0°C 30.3°F-0.9°C 57% 1.6 mph WNW2.6 kmh WNW 2.2 mph3.5 kmh 29.89 in1012.2 mb 0.00 in0.0 mm 0.00 in0.0 mm 0.00 in0.0 mm
01:06 AM 44.6°F7.0°C 29.9°F-1.2°C 56% 2.2 mph NW3.5 kmh NW 2.2 mph3.5 kmh 29.89 in1012.2 mb 0.00 in0.0 mm 0.00 in0.0 mm 0.00 in0.0 mm
01:05 AM 44.6°F7.0°C 30.3°F-0.9°C 57% 2.0 mph WNW3.2 kmh WNW 2.2 mph3.5 kmh 29.88 in1011.9 mb 0.00 in0.0 mm 0.00 in0.0 mm 0.00 in0.0 mm
01:04 AM 44.6°F7.0°C 30.3°F-0.9°C 57% 3.4 mph W5.5 kmh W 4.5 mph7.2 kmh 29.89 in1012.2 mb 0.00 in0.0 mm 0.00 in0.0 mm 0.00 in0.0 mm
01:03 AM 44.6°F7.0°C 30.3°F-0.9°C 57% 2.9 mph WNW4.7 kmh WNW 4.5 mph7.2 kmh 29.89 in1012.2 mb 0.00 in0.0 mm 0.00 in0.0 mm 0.00 in0.0 mm
01:02 AM 44.6°F7.0°C 30.3°F-0.9°C 57% 5.4 mph NW8.7 kmh NW 8.1 mph13.0 kmh 29.89 in1012.2 mb 0.00 in0.0 mm 0.00 in0.0 mm 0.00 in0.0 mm
01:01 AM 44.8°F7.1°C 30.5°F-0.8°C 57% 5.8 mph W9.3 kmh W 8.1 mph13.0 kmh 29.88 in1011.9 mb 0.00 in0.0 mm 0.00 in0.0 mm 0.00 in0.0 mm
01:00 AM 44.8°F7.1°C 30.1°F-1.1°C 56% 4.9 mph W7.9 kmh W 8.1 mph13.0 kmh 29.88 in1011.9 mb 0.00 in0.0 mm 0.00 in0.0 mm 0.00 in0.0 mm
12:59 AM 44.8°F7.1°C 29.6°F-1.3°C 55% 3.1 mph W5.0 kmh W 4.5 mph7.2 kmh 29.89 in1012.2 mb 0.00 in0.0 mm 0.00 in0.0 mm 0.00 in0.0 mm
12:58 AM 44.8°F7.1°C 29.6°F-1.3°C 55% 6.7 mph W10.8 kmh W 9.2 mph14.8 kmh 29.89 in1012.2 mb 0.00 in0.0 mm 0.00 in0.0 mm 0.00 in0.0 mm
12:57 AM 44.6°F7.0°C 29.4°F-1.4°C 55% 11.2 mph W18.0 kmh W 13.6 mph21.9 kmh 29.89 in1012.2 mb 0.00 in0.0 mm 0.00 in0.0 mm 0.00 in0.0 mm
12:56 AM 44.6°F7.0°C 29.4°F-1.4°C 55% 11.6 mph W18.7 kmh W 15.9 mph25.6 kmh 29.89 in1012.2 mb 0.00 in0.0 mm 0.00 in0.0 mm 0.00 in0.0 mm
12:55 AM 44.6°F7.0°C 29.9°F-1.2°C 56% 3.1 mph W5.0 kmh W 4.5 mph7.2 kmh 29.89 in1012.2 mb 0.00 in0.0 mm 0.00 in0.0 mm 0.00 in0.0 mm
12:54 AM 44.6°F7.0°C 29.9°F-1.2°C 56% 5.1 mph W8.2 kmh W 6.9 mph11.1 kmh 29.89 in1012.2 mb 0.00 in0.0 mm 0.00 in0.0 mm 0.00 in0.0 mm
12:53 AM 44.6°F7.0°C 29.9°F-1.2°C 56% 1.6 mph WNW2.6 kmh WNW 2.2 mph3.5 kmh 29.89 in1012.2 mb 0.00 in0.0 mm 0.00 in0.0 mm 0.00 in0.0 mm
12:52 AM 44.4°F6.9°C 29.3°F-1.5°C 55% 6.0 mph W9.7 kmh W 8.1 mph13.0 kmh 29.89 in1012.2 mb 0.00 in0.0 mm 0.00 in0.0 mm 0.00 in0.0 mm
12:51 AM 44.4°F6.9°C 29.7°F-1.3°C 56% 4.9 mph WNW7.9 kmh WNW 8.1 mph13.0 kmh 29.89 in1012.2 mb 0.00 in0.0 mm 0.00 in0.0 mm 0.00 in0.0 mm
12:50 AM 44.4°F6.9°C 30.1°F-1.1°C 57% 2.9 mph WNW4.7 kmh WNW 5.8 mph9.3 kmh 29.89 in1012.2 mb 0.00 in0.0 mm 0.00 in0.0 mm 0.00 in0.0 mm
12:49 AM 44.4°F6.9°C 29.7°F-1.3°C 56% 4.9 mph W7.9 kmh W 8.1 mph13.0 kmh 29.89 in1012.2 mb 0.00 in0.0 mm 0.00 in0.0 mm 0.00 in0.0 mm
12:48 AM 44.4°F6.9°C 30.1°F-1.1°C 57% 4.3 mph W6.9 kmh W 6.9 mph11.1 kmh 29.89 in1012.2 mb 0.00 in0.0 mm 0.00 in0.0 mm 0.00 in0.0 mm
12:47 AM 44.4°F6.9°C 30.1°F-1.1°C 57% 5.6 mph NW9.0 kmh NW 9.2 mph14.8 kmh 29.89 in1012.2 mb 0.00 in0.0 mm 0.00 in0.0 mm 0.00 in0.0 mm
12:46 AM 44.4°F6.9°C 29.7°F-1.3°C 56% 4.9 mph W7.9 kmh W 8.1 mph13.0 kmh 29.89 in1012.2 mb 0.00 in0.0 mm 0.00 in0.0 mm 0.00 in0.0 mm
12:45 AM 44.4°F6.9°C 29.7°F-1.3°C 56% 4.3 mph WSW6.9 kmh WSW 5.8 mph9.3 kmh 29.89 in1012.2 mb 0.00 in0.0 mm 0.00 in0.0 mm 0.00 in0.0 mm
12:44 AM 44.4°F6.9°C 30.1°F-1.1°C 57% 1.8 mph WNW2.9 kmh WNW 2.2 mph3.5 kmh 29.89 in1012.2 mb 0.00 in0.0 mm 0.00 in0.0 mm 0.00 in0.0 mm
12:43 AM 44.4°F6.9°C 29.7°F-1.3°C 56% 4.7 mph WSW7.6 kmh WSW 6.9 mph11.1 kmh 29.89 in1012.2 mb 0.00 in0.0 mm 0.00 in0.0 mm 0.00 in0.0 mm
12:42 AM 44.4°F6.9°C 29.7°F-1.3°C 56% 2.9 mph WSW4.7 kmh WSW 6.9 mph11.1 kmh 29.89 in1012.2 mb 0.00 in0.0 mm 0.00 in0.0 mm 0.00 in0.0 mm
12:41 AM 44.4°F6.9°C 29.7°F-1.3°C 56% 5.1 mph WNW8.2 kmh WNW 9.2 mph14.8 kmh 29.89 in1012.2 mb 0.00 in0.0 mm 0.00 in0.0 mm 0.00 in0.0 mm
12:40 AM 44.4°F6.9°C 29.3°F-1.5°C 55% 3.4 mph WNW5.5 kmh WNW 5.8 mph9.3 kmh 29.89 in1012.2 mb 0.00 in0.0 mm 0.00 in0.0 mm 0.00 in0.0 mm
12:39 AM 44.2°F6.8°C 29.5°F-1.4°C 56% 3.4 mph NW5.5 kmh NW 5.8 mph9.3 kmh 29.89 in1012.2 mb 0.00 in0.0 mm 0.00 in0.0 mm 0.00 in0.0 mm
12:38 AM 44.2°F6.8°C 29.5°F-1.4°C 56% 5.8 mph W9.3 kmh W 9.2 mph14.8 kmh 29.89 in1012.2 mb 0.00 in0.0 mm 0.00 in0.0 mm 0.00 in0.0 mm
12:37 AM 44.2°F6.8°C 29.1°F-1.6°C 55% 6.5 mph WNW10.5 kmh WNW 9.2 mph14.8 kmh 29.89 in1012.2 mb 0.00 in0.0 mm 0.00 in0.0 mm 0.00 in0.0 mm
12:36 AM 44.2°F6.8°C 29.5°F-1.4°C 56% 3.6 mph W5.8 kmh W 5.8 mph9.3 kmh 29.89 in1012.2 mb 0.00 in0.0 mm 0.00 in0.0 mm 0.00 in0.0 mm
12:35 AM 44.1°F6.7°C 29.0°F-1.7°C 55% 5.8 mph NW9.3 kmh NW 10.3 mph16.6 kmh 29.89 in1012.2 mb 0.00 in0.0 mm 0.00 in0.0 mm 0.00 in0.0 mm
12:34 AM 44.1°F6.7°C 29.4°F-1.4°C 56% 4.9 mph NW7.9 kmh NW 6.9 mph11.1 kmh 29.89 in1012.2 mb 0.00 in0.0 mm 0.00 in0.0 mm 0.00 in0.0 mm
12:33 AM 44.1°F6.7°C 29.9°F-1.2°C 57% 2.5 mph WNW4.0 kmh WNW 3.4 mph5.5 kmh 29.89 in1012.2 mb 0.00 in0.0 mm 0.00 in0.0 mm 0.00 in0.0 mm
12:32 AM 44.1°F6.7°C 30.3°F-0.9°C 58% 3.8 mph W6.1 kmh W 5.8 mph9.3 kmh 29.89 in1012.2 mb 0.00 in0.0 mm 0.00 in0.0 mm 0.00 in0.0 mm
12:31 AM 44.2°F6.8°C 30.4°F-0.9°C 58% 2.9 mph W4.7 kmh W 4.5 mph7.2 kmh 29.89 in1012.2 mb 0.00 in0.0 mm 0.00 in0.0 mm 0.00 in0.0 mm
12:30 AM 44.2°F6.8°C 30.4°F-0.9°C 58% 1.8 mph WNW2.9 kmh WNW 2.2 mph3.5 kmh 29.89 in1012.2 mb 0.00 in0.0 mm 0.00 in0.0 mm 0.00 in0.0 mm
12:29 AM 44.2°F6.8°C 29.9°F-1.2°C 57% 7.4 mph NW11.9 kmh NW 10.3 mph16.6 kmh 29.88 in1011.9 mb 0.00 in0.0 mm 0.00 in0.0 mm 0.00 in0.0 mm
12:28 AM 44.2°F6.8°C 29.5°F-1.4°C 56% 2.5 mph WNW4.0 kmh WNW 3.4 mph5.5 kmh 29.88 in1011.9 mb 0.00 in0.0 mm 0.00 in0.0 mm 0.00 in0.0 mm
12:27 AM 44.2°F6.8°C 29.5°F-1.4°C 56% 3.8 mph WNW6.1 kmh WNW 8.1 mph13.0 kmh 29.89 in1012.2 mb 0.00 in0.0 mm 0.00 in0.0 mm 0.00 in0.0 mm
12:26 AM 44.2°F6.8°C 29.5°F-1.4°C 56% 2.2 mph WNW3.5 kmh WNW 4.5 mph7.2 kmh 29.88 in1011.9 mb 0.00 in0.0 mm 0.00 in0.0 mm 0.00 in0.0 mm
12:25 AM 44.2°F6.8°C 29.5°F-1.4°C 56% 6.3 mph NNW10.1 kmh NNW 10.3 mph16.6 kmh 29.89 in1012.2 mb 0.00 in0.0 mm 0.00 in0.0 mm 0.00 in0.0 mm
12:24 AM 44.1°F6.7°C 29.9°F-1.2°C 57% 3.8 mph W6.1 kmh W 6.9 mph11.1 kmh 29.89 in1012.2 mb 0.00 in0.0 mm 0.00 in0.0 mm 0.00 in0.0 mm
12:23 AM 44.1°F6.7°C 29.9°F-1.2°C 57% 7.2 mph NNW11.6 kmh NNW 10.3 mph16.6 kmh 29.89 in1012.2 mb 0.00 in0.0 mm 0.00 in0.0 mm 0.00 in0.0 mm
12:22 AM 44.1°F6.7°C 30.3°F-0.9°C 58% 6.7 mph W10.8 kmh W 12.5 mph20.1 kmh 29.89 in1012.2 mb 0.00 in0.0 mm 0.00 in0.0 mm 0.00 in0.0 mm
12:21 AM 44.2°F6.8°C 30.4°F-0.9°C 58% 2.9 mph WNW4.7 kmh WNW 3.4 mph5.5 kmh 29.89 in1012.2 mb 0.00 in0.0 mm 0.00 in0.0 mm 0.00 in0.0 mm
12:20 AM 44.4°F6.9°C 30.1°F-1.1°C 57% 4.0 mph WNW6.4 kmh WNW 8.1 mph13.0 kmh 29.89 in1012.2 mb 0.00 in0.0 mm 0.00 in0.0 mm 0.00 in0.0 mm
12:19 AM 44.4°F6.9°C 29.7°F-1.3°C 56% 2.0 mph NNW3.2 kmh NNW 2.2 mph3.5 kmh 29.88 in1011.9 mb 0.00 in0.0 mm 0.00 in0.0 mm 0.00 in0.0 mm
12:18 AM 44.4°F6.9°C 29.3°F-1.5°C 55% 2.5 mph W4.0 kmh W 3.4 mph5.5 kmh 29.88 in1011.9 mb 0.00 in0.0 mm 0.00 in0.0 mm 0.00 in0.0 mm
12:17 AM 44.4°F6.9°C 29.3°F-1.5°C 55% 2.7 mph NW4.3 kmh NW 3.4 mph5.5 kmh 29.89 in1012.2 mb 0.00 in0.0 mm 0.00 in0.0 mm 0.00 in0.0 mm
12:16 AM 44.2°F6.8°C 29.1°F-1.6°C 55% 5.1 mph NW8.2 kmh NW 10.3 mph16.6 kmh 29.89 in1012.2 mb 0.00 in0.0 mm 0.00 in0.0 mm 0.00 in0.0 mm
12:15 AM 44.2°F6.8°C 29.5°F-1.4°C 56% 6.9 mph WNW11.1 kmh WNW 10.3 mph16.6 kmh 29.89 in1012.2 mb 0.00 in0.0 mm 0.00 in0.0 mm 0.00 in0.0 mm
12:14 AM 44.2°F6.8°C 29.9°F-1.2°C 57% 4.5 mph NNW7.2 kmh NNW 6.9 mph11.1 kmh 29.89 in1012.2 mb 0.00 in0.0 mm 0.00 in0.0 mm 0.00 in0.0 mm
12:13 AM 44.2°F6.8°C 29.9°F-1.2°C 57% 3.8 mph W6.1 kmh W 5.8 mph9.3 kmh 29.88 in1011.9 mb 0.00 in0.0 mm 0.00 in0.0 mm 0.00 in0.0 mm
12:12 AM 44.2°F6.8°C 29.9°F-1.2°C 57% 3.6 mph WSW5.8 kmh WSW 9.2 mph14.8 kmh 29.89 in1012.2 mb 0.00 in0.0 mm 0.00 in0.0 mm 0.00 in0.0 mm
12:11 AM 44.2°F6.8°C 29.9°F-1.2°C 57% 1.8 mph WNW2.9 kmh WNW 2.2 mph3.5 kmh 29.89 in1012.2 mb 0.00 in0.0 mm 0.00 in0.0 mm 0.00 in0.0 mm
12:10 AM 44.2°F6.8°C 29.9°F-1.2°C 57% 2.9 mph NNW4.7 kmh NNW 6.9 mph11.1 kmh 29.89 in1012.2 mb 0.00 in0.0 mm 0.00 in0.0 mm 0.00 in0.0 mm
12:09 AM 44.2°F6.8°C 29.9°F-1.2°C 57% 3.8 mph N6.1 kmh N 5.8 mph9.3 kmh 29.89 in1012.2 mb 0.00 in0.0 mm 0.00 in0.0 mm 0.00 in0.0 mm
12:08 AM 44.2°F6.8°C 29.9°F-1.2°C 57% 5.4 mph NW8.7 kmh NW 10.3 mph16.6 kmh 29.89 in1012.2 mb 0.00 in0.0 mm 0.00 in0.0 mm 0.00 in0.0 mm
12:07 AM 44.2°F6.8°C 29.9°F-1.2°C 57% 5.1 mph WNW8.2 kmh WNW 10.3 mph16.6 kmh 29.89 in1012.2 mb 0.00 in0.0 mm 0.00 in0.0 mm 0.00 in0.0 mm
12:06 AM 44.4°F6.9°C 30.1°F-1.1°C 57% 2.5 mph WSW4.0 kmh WSW 8.1 mph13.0 kmh 29.89 in1012.2 mb 0.00 in0.0 mm 0.00 in0.0 mm 0.00 in0.0 mm
12:05 AM 44.4°F6.9°C 30.1°F-1.1°C 57% 1.8 mph NNW2.9 kmh NNW 2.2 mph3.5 kmh 29.89 in1012.2 mb 0.00 in0.0 mm 0.00 in0.0 mm 0.00 in0.0 mm
12:04 AM 44.4°F6.9°C 30.1°F-1.1°C 57% 3.8 mph NW6.1 kmh NW 6.9 mph11.1 kmh 29.89 in1012.2 mb 0.00 in0.0 mm 0.00 in0.0 mm 0.00 in0.0 mm
12:03 AM 44.4°F6.9°C 30.1°F-1.1°C 57% 2.2 mph N3.5 kmh N 2.2 mph3.5 kmh 29.88 in1011.9 mb 0.00 in0.0 mm 0.00 in0.0 mm 0.00 in0.0 mm
12:02 AM 44.4°F6.9°C 30.1°F-1.1°C 57% 4.0 mph NW6.4 kmh NW 11.4 mph18.3 kmh 29.89 in1012.2 mb 0.00 in0.0 mm 0.00 in0.0 mm 0.00 in0.0 mm
12:01 AM 44.4°F6.9°C 30.1°F-1.1°C 57% 6.0 mph NW9.7 kmh NW 9.2 mph14.8 kmh 29.89 in1012.2 mb 0.00 in0.0 mm 0.00 in0.0 mm 0.00 in0.0 mm
12:00 AM 44.4°F6.9°C 30.1°F-1.1°C 57% 3.4 mph WNW5.5 kmh WNW 4.5 mph7.2 kmh 29.89 in1012.2 mb 0.00 in0.0 mm 0.00 in0.0 mm 0.00 in0.0 mm